createdAt,value
2022-12-14T00:00:11.174Z,1005.07
2022-12-14T00:01:11.118Z,1005.05
2022-12-14T00:02:11.122Z,1004.99
2022-12-14T00:03:11.234Z,1004.99
2022-12-14T00:04:11.112Z,1004.98
2022-12-14T00:05:11.072Z,1004.93
2022-12-14T00:06:11.062Z,1004.95
2022-12-14T00:07:11.044Z,1004.89
2022-12-14T00:08:11.043Z,1004.88
2022-12-14T00:09:11.024Z,1004.93
2022-12-14T00:10:11.027Z,1004.89
2022-12-14T00:11:11.011Z,1004.86
2022-12-14T00:12:10.993Z,1004.88
2022-12-14T00:13:10.984Z,1004.81
2022-12-14T00:14:10.979Z,1004.84
2022-12-14T00:15:11.019Z,1004.86
2022-12-14T00:16:10.985Z,1004.77
2022-12-14T00:17:10.995Z,1004.75
2022-12-14T00:18:10.900Z,1004.78
2022-12-14T00:19:11.053Z,1004.75
2022-12-14T00:20:10.899Z,1004.75
2022-12-14T00:21:10.938Z,1004.72
2022-12-14T00:22:10.866Z,1004.69
2022-12-14T00:23:10.874Z,1004.72
2022-12-14T00:24:10.842Z,1004.64
2022-12-14T00:25:10.827Z,1004.69
2022-12-14T00:26:10.825Z,1004.68
2022-12-14T00:27:10.806Z,1004.69
2022-12-14T00:28:10.848Z,1004.62
2022-12-14T00:29:10.768Z,1004.60
2022-12-14T00:30:10.759Z,1004.62
2022-12-14T00:31:10.787Z,1004.62
2022-12-14T00:32:10.735Z,1004.62
2022-12-14T00:33:10.737Z,1004.60
2022-12-14T00:34:10.732Z,1004.59
2022-12-14T00:35:10.699Z,1004.59
2022-12-14T00:36:10.702Z,1004.60
2022-12-14T00:37:10.738Z,1004.60
2022-12-14T00:38:10.651Z,1004.60
2022-12-14T00:39:10.678Z,1004.61
2022-12-14T00:40:10.621Z,1004.62
2022-12-14T00:41:10.608Z,1004.62
2022-12-14T00:42:10.613Z,1004.62
2022-12-14T00:43:10.607Z,1004.62
2022-12-14T00:44:10.662Z,1004.65
2022-12-14T00:45:10.760Z,1004.63
2022-12-14T00:46:10.584Z,1004.64
2022-12-14T00:47:10.772Z,1004.60
2022-12-14T00:48:10.686Z,1004.60
2022-12-14T00:49:10.571Z,1004.56
2022-12-14T00:50:10.531Z,1004.55
2022-12-14T00:51:10.504Z,1004.61
2022-12-14T00:52:10.482Z,1004.61
2022-12-14T00:53:10.476Z,1004.57
2022-12-14T00:54:10.492Z,1004.63
2022-12-14T00:55:10.447Z,1004.62
2022-12-14T00:56:10.443Z,1004.60
2022-12-14T00:57:10.416Z,1004.64
2022-12-14T00:58:10.411Z,1004.63
2022-12-14T00:59:10.433Z,1004.65
2022-12-14T01:00:10.372Z,1004.66
2022-12-14T01:01:10.429Z,1004.64
2022-12-14T01:02:10.463Z,1004.67
2022-12-14T01:03:10.342Z,1004.65
2022-12-14T01:04:10.384Z,1004.66
2022-12-14T01:05:10.342Z,1004.65
2022-12-14T01:06:10.308Z,1004.63
2022-12-14T01:07:10.303Z,1004.63
2022-12-14T01:08:10.275Z,1004.63
2022-12-14T01:09:10.290Z,1004.64
2022-12-14T01:10:10.251Z,1004.68
2022-12-14T01:11:10.232Z,1004.63
2022-12-14T01:12:10.218Z,1004.61
2022-12-14T01:13:10.244Z,1004.57
2022-12-14T01:14:10.219Z,1004.55
2022-12-14T01:15:10.178Z,1004.49
2022-12-14T01:16:10.241Z,1004.46
2022-12-14T01:17:10.153Z,1004.45
2022-12-14T01:18:10.140Z,1004.48
2022-12-14T01:19:10.139Z,1004.47
2022-12-14T01:20:10.136Z,1004.48
2022-12-14T01:21:10.110Z,1004.47
2022-12-14T01:22:10.098Z,1004.45
2022-12-14T01:23:10.081Z,1004.44
2022-12-14T01:24:10.084Z,1004.44
2022-12-14T01:25:10.065Z,1004.45
2022-12-14T01:26:10.044Z,1004.46
2022-12-14T01:27:10.034Z,1004.45
2022-12-14T01:28:10.027Z,1004.48
2022-12-14T01:29:10.004Z,1004.42
2022-12-14T01:30:09.995Z,1004.45
2022-12-14T01:31:10.074Z,1004.41
2022-12-14T01:32:09.976Z,1004.39
2022-12-14T01:33:10.002Z,1004.39
2022-12-14T01:34:09.953Z,1004.44
2022-12-14T01:35:09.932Z,1004.40
2022-12-14T01:36:09.921Z,1004.42
2022-12-14T01:37:09.905Z,1004.41
2022-12-14T01:38:09.887Z,1004.44
2022-12-14T01:39:09.893Z,1004.47
2022-12-14T01:40:09.938Z,1004.41
2022-12-14T01:41:09.875Z,1004.39
2022-12-14T01:42:09.843Z,1004.42
2022-12-14T01:43:09.829Z,1004.44
2022-12-14T01:44:09.828Z,1004.40
2022-12-14T01:45:09.820Z,1004.36
2022-12-14T01:46:09.844Z,1004.38
2022-12-14T01:47:12.828Z,1004.38
2022-12-14T01:48:09.764Z,1004.32
2022-12-14T01:49:09.745Z,1004.34
2022-12-14T01:50:09.740Z,1004.32
2022-12-14T01:51:09.733Z,1004.31
2022-12-14T01:52:09.714Z,1004.31
2022-12-14T01:53:09.694Z,1004.32
2022-12-14T01:54:09.692Z,1004.29
2022-12-14T01:55:09.680Z,1004.29
2022-12-14T01:56:09.668Z,1004.27
2022-12-14T01:57:09.650Z,1004.29
2022-12-14T01:58:09.648Z,1004.28
2022-12-14T01:59:09.627Z,1004.28
2022-12-14T02:00:09.724Z,1004.25
2022-12-14T02:01:09.627Z,1004.28
2022-12-14T02:02:09.671Z,1004.25
2022-12-14T02:03:09.631Z,1004.30
2022-12-14T02:04:09.575Z,1004.23
2022-12-14T02:05:09.542Z,1004.25
2022-12-14T02:06:09.531Z,1004.20
2022-12-14T02:07:09.531Z,1004.20
2022-12-14T02:08:09.524Z,1004.18
2022-12-14T02:09:09.520Z,1004.22
2022-12-14T02:10:09.484Z,1004.23
2022-12-14T02:11:09.474Z,1004.24
2022-12-14T02:12:09.450Z,1004.21
2022-12-14T02:13:09.460Z,1004.24
2022-12-14T02:14:09.425Z,1004.25
2022-12-14T02:15:09.421Z,1004.24
2022-12-14T02:16:09.441Z,1004.27
2022-12-14T02:17:09.405Z,1004.19
2022-12-14T02:18:09.375Z,1004.21
2022-12-14T02:19:09.375Z,1004.20
2022-12-14T02:20:09.353Z,1004.16
2022-12-14T02:21:09.336Z,1004.20
2022-12-14T02:22:09.332Z,1004.17
2022-12-14T02:23:09.332Z,1004.15
2022-12-14T02:24:09.306Z,1004.14
2022-12-14T02:25:09.287Z,1004.17
2022-12-14T02:26:09.297Z,1004.19
2022-12-14T02:27:09.281Z,1004.22
2022-12-14T02:28:09.267Z,1004.25
2022-12-14T02:29:09.279Z,1004.22
2022-12-14T02:30:09.235Z,1004.26
2022-12-14T02:31:09.238Z,1004.24
2022-12-14T02:32:09.215Z,1004.25
2022-12-14T02:33:09.197Z,1004.25
2022-12-14T02:34:09.178Z,1004.18
2022-12-14T02:35:09.160Z,1004.22
2022-12-14T02:36:09.165Z,1004.23
2022-12-14T02:37:09.148Z,1004.19
2022-12-14T02:38:09.145Z,1004.21
2022-12-14T02:39:09.133Z,1004.24
2022-12-14T02:40:09.107Z,1004.27
2022-12-14T02:41:09.082Z,1004.28
2022-12-14T02:42:09.084Z,1004.22
2022-12-14T02:43:09.059Z,1004.24
2022-12-14T02:44:09.037Z,1004.19
2022-12-14T02:45:09.031Z,1004.16
2022-12-14T02:46:09.023Z,1004.16
2022-12-14T02:47:09.025Z,1004.17
2022-12-14T02:48:08.986Z,1004.12
2022-12-14T02:49:08.981Z,1004.12
2022-12-14T02:50:08.976Z,1004.08
2022-12-14T02:51:08.955Z,1004.11
2022-12-14T02:52:08.938Z,1004.10
2022-12-14T02:53:08.930Z,1004.09
2022-12-14T02:54:08.908Z,1004.08
2022-12-14T02:55:08.917Z,1004.09
2022-12-14T02:56:08.903Z,1004.06
2022-12-14T02:57:08.976Z,1004.05
2022-12-14T02:58:08.863Z,1004.01
2022-12-14T02:59:08.867Z,1004.04
2022-12-14T03:00:08.844Z,1004.07
2022-12-14T03:01:08.927Z,1004.07
2022-12-14T03:02:08.921Z,1004.07
2022-12-14T03:03:08.823Z,1004.03
2022-12-14T03:04:08.783Z,1004.04
2022-12-14T03:05:08.800Z,1004.04
2022-12-14T03:06:08.758Z,1004.02
2022-12-14T03:07:08.741Z,1003.97
2022-12-14T03:08:08.745Z,1003.98
2022-12-14T03:09:08.730Z,1003.99
2022-12-14T03:10:08.708Z,1003.97
2022-12-14T03:11:08.707Z,1003.99
2022-12-14T03:12:08.684Z,1003.95
2022-12-14T03:13:08.661Z,1003.96
2022-12-14T03:14:08.661Z,1003.95
2022-12-14T03:15:08.650Z,1003.93
2022-12-14T03:16:08.666Z,1003.90
2022-12-14T03:17:08.620Z,1003.93
2022-12-14T03:18:08.603Z,1003.88
2022-12-14T03:19:08.590Z,1003.91
2022-12-14T03:20:08.575Z,1003.92
2022-12-14T03:21:08.587Z,1003.92
2022-12-14T03:22:08.549Z,1003.93
2022-12-14T03:23:08.533Z,1003.89
2022-12-14T03:24:08.526Z,1003.91
2022-12-14T03:25:08.514Z,1003.89
2022-12-14T03:26:08.517Z,1003.84
2022-12-14T03:27:08.498Z,1003.84
2022-12-14T03:28:08.472Z,1003.83
2022-12-14T03:29:08.453Z,1003.81
2022-12-14T03:30:08.458Z,1003.84
2022-12-14T03:31:08.516Z,1003.84
2022-12-14T03:32:08.445Z,1003.87
2022-12-14T03:33:08.409Z,1003.77
2022-12-14T03:34:13.092Z,1003.76
2022-12-14T03:35:08.401Z,1003.74
2022-12-14T03:36:08.377Z,1003.71
2022-12-14T03:37:08.583Z,1003.70
2022-12-14T03:38:08.337Z,1003.71
2022-12-14T03:39:08.324Z,1003.68
2022-12-14T03:40:08.366Z,1003.70
2022-12-14T03:41:08.310Z,1003.68
2022-12-14T03:42:08.296Z,1003.66
2022-12-14T03:43:08.278Z,1003.69
2022-12-14T03:44:08.255Z,1003.63
2022-12-14T03:45:08.253Z,1003.68
2022-12-14T03:46:08.276Z,1003.70
2022-12-14T03:47:08.243Z,1003.69
2022-12-14T03:48:08.241Z,1003.71
2022-12-14T03:49:08.208Z,1003.66
2022-12-14T03:50:08.202Z,1003.66
2022-12-14T03:51:08.231Z,1003.67
2022-12-14T03:52:08.161Z,1003.59
2022-12-14T03:53:08.207Z,1003.60
2022-12-14T03:54:08.130Z,1003.58
2022-12-14T03:55:08.122Z,1003.57
2022-12-14T03:56:08.116Z,1003.59
2022-12-14T03:57:08.111Z,1003.57
2022-12-14T03:58:08.087Z,1003.57
2022-12-14T03:59:08.085Z,1003.55
2022-12-14T04:00:08.058Z,1003.55
2022-12-14T04:01:08.376Z,1003.52
2022-12-14T04:02:08.205Z,1003.53
2022-12-14T04:03:08.087Z,1003.55
2022-12-14T04:04:08.007Z,1003.54
2022-12-14T04:05:07.988Z,1003.52
2022-12-14T04:06:07.972Z,1003.53
2022-12-14T04:07:07.982Z,1003.49
2022-12-14T04:08:08.009Z,1003.46
2022-12-14T04:09:07.970Z,1003.46
2022-12-14T04:10:07.934Z,1003.44
2022-12-14T04:11:07.913Z,1003.44
2022-12-14T04:12:07.909Z,1003.46
2022-12-14T04:13:07.903Z,1003.46
2022-12-14T04:14:07.899Z,1003.44
2022-12-14T04:15:07.891Z,1003.45
2022-12-14T04:16:07.901Z,1003.43
2022-12-14T04:17:07.836Z,1003.43
2022-12-14T04:18:07.849Z,1003.38
2022-12-14T04:19:07.846Z,1003.42
2022-12-14T04:20:07.829Z,1003.36
2022-12-14T04:21:07.785Z,1003.39
2022-12-14T04:22:07.789Z,1003.37
2022-12-14T04:23:07.753Z,1003.38
2022-12-14T04:24:07.782Z,1003.37
2022-12-14T04:25:07.734Z,1003.35
2022-12-14T04:26:07.720Z,1003.36
2022-12-14T04:27:07.707Z,1003.37
2022-12-14T04:28:07.701Z,1003.33
2022-12-14T04:29:07.695Z,1003.35
2022-12-14T04:30:07.666Z,1003.31
2022-12-14T04:31:07.652Z,1003.31
2022-12-14T04:32:07.805Z,1003.32
2022-12-14T04:33:07.643Z,1003.30
2022-12-14T04:34:07.606Z,1003.31
2022-12-14T04:35:07.611Z,1003.30
2022-12-14T04:36:07.581Z,1003.26
2022-12-14T04:37:07.575Z,1003.27
2022-12-14T04:38:07.727Z,1003.28
2022-12-14T04:39:07.599Z,1003.25
2022-12-14T04:40:07.534Z,1003.20
2022-12-14T04:41:07.585Z,1003.18
2022-12-14T04:42:07.527Z,1003.25
2022-12-14T04:43:07.512Z,1003.20
2022-12-14T04:44:07.479Z,1003.21
2022-12-14T04:45:07.500Z,1003.21
2022-12-14T04:46:07.509Z,1003.17
2022-12-14T04:47:07.470Z,1003.14
2022-12-14T04:48:07.442Z,1003.14
2022-12-14T04:49:07.420Z,1003.12
2022-12-14T04:50:07.391Z,1003.13
2022-12-14T04:51:07.393Z,1003.09
2022-12-14T04:52:07.367Z,1003.07
2022-12-14T04:53:07.354Z,1003.05
2022-12-14T04:54:07.358Z,1003.04
2022-12-14T04:55:07.337Z,1003.04
2022-12-14T04:56:07.321Z,1003.07
2022-12-14T04:57:07.299Z,1003.08
2022-12-14T04:58:07.313Z,1003.04
2022-12-14T04:59:07.284Z,1003.05
2022-12-14T05:00:07.248Z,1003.00
2022-12-14T05:01:07.264Z,1003.02
2022-12-14T05:02:07.390Z,1003.00
2022-12-14T05:03:07.335Z,1003.01
2022-12-14T05:04:12.330Z,1003.05
2022-12-14T05:05:07.194Z,1003.03
2022-12-14T05:06:07.187Z,1002.99
2022-12-14T05:07:07.189Z,1002.92
2022-12-14T05:08:07.198Z,1002.90
2022-12-14T05:09:07.166Z,1002.90
2022-12-14T05:10:07.124Z,1002.87
2022-12-14T05:11:39.457Z,1002.84
2022-12-14T05:12:07.107Z,1002.87
2022-12-14T05:13:07.098Z,1002.88
2022-12-14T05:14:07.090Z,1002.89
2022-12-14T05:15:07.068Z,1002.87
2022-12-14T05:16:07.049Z,1002.84
2022-12-14T05:17:09.234Z,1002.82
2022-12-14T05:18:07.049Z,1002.82
2022-12-14T05:19:07.018Z,1002.85
2022-12-14T05:20:06.992Z,1002.81
2022-12-14T05:21:06.983Z,1002.81
2022-12-14T05:22:06.966Z,1002.80
2022-12-14T05:23:06.971Z,1002.82
2022-12-14T05:24:06.940Z,1002.82
2022-12-14T05:25:06.935Z,1002.80
2022-12-14T05:26:06.907Z,1002.79
2022-12-14T05:27:06.906Z,1002.77
2022-12-14T05:28:06.900Z,1002.75
2022-12-14T05:29:06.883Z,1002.73
2022-12-14T05:30:06.856Z,1002.73
2022-12-14T05:31:06.873Z,1002.68
2022-12-14T05:32:06.840Z,1002.73
2022-12-14T05:33:06.821Z,1002.72
2022-12-14T05:34:06.832Z,1002.71
2022-12-14T05:35:06.808Z,1002.72
2022-12-14T05:36:06.781Z,1002.69
2022-12-14T05:37:06.776Z,1002.67
2022-12-14T05:38:06.761Z,1002.62
2022-12-14T05:39:06.757Z,1002.63
2022-12-14T05:40:06.856Z,1002.60
2022-12-14T05:41:06.715Z,1002.61
2022-12-14T05:42:06.694Z,1002.55
2022-12-14T05:43:06.715Z,1002.53
2022-12-14T05:44:06.681Z,1002.54
2022-12-14T05:45:06.659Z,1002.50
2022-12-14T05:46:06.743Z,1002.51
2022-12-14T05:47:06.636Z,1002.48
2022-12-14T05:48:06.635Z,1002.43
2022-12-14T05:49:06.614Z,1002.43
2022-12-14T05:50:06.581Z,1002.38
2022-12-14T05:51:06.572Z,1002.41
2022-12-14T05:52:06.577Z,1002.31
2022-12-14T05:53:06.556Z,1002.39
2022-12-14T05:54:06.551Z,1002.36
2022-12-14T05:55:06.568Z,1002.34
2022-12-14T05:56:06.508Z,1002.27
2022-12-14T05:57:06.498Z,1002.25
2022-12-14T05:58:06.518Z,1002.27
2022-12-14T05:59:06.489Z,1002.24
2022-12-14T06:00:06.487Z,1002.25
2022-12-14T06:01:06.481Z,1002.24
2022-12-14T06:02:06.582Z,1002.22
2022-12-14T06:03:06.479Z,1002.26
2022-12-14T06:04:06.492Z,1002.25
2022-12-14T06:05:06.421Z,1002.24
2022-12-14T06:06:06.377Z,1002.20
2022-12-14T06:07:06.368Z,1002.22
2022-12-14T06:08:06.360Z,1002.20
2022-12-14T06:09:06.341Z,1002.20
2022-12-14T06:10:06.371Z,1002.21
2022-12-14T06:11:06.338Z,1002.20
2022-12-14T06:12:06.292Z,1002.20
2022-12-14T06:13:06.287Z,1002.20
2022-12-14T06:14:06.302Z,1002.20
2022-12-14T06:15:06.275Z,1002.21
2022-12-14T06:16:06.331Z,1002.23
2022-12-14T06:17:06.237Z,1002.22
2022-12-14T06:18:06.231Z,1002.21
2022-12-14T06:19:06.228Z,1002.23
2022-12-14T06:20:06.199Z,1002.26
2022-12-14T06:21:06.180Z,1002.24
2022-12-14T06:22:06.168Z,1002.19
2022-12-14T06:23:06.148Z,1002.17
2022-12-14T06:24:06.177Z,1002.21
2022-12-14T06:25:06.120Z,1002.16
2022-12-14T06:26:06.113Z,1002.17
2022-12-14T06:27:06.094Z,1002.16
2022-12-14T06:28:06.077Z,1002.18
2022-12-14T06:29:06.065Z,1002.19
2022-12-14T06:30:06.067Z,1002.16
2022-12-14T06:31:06.112Z,1002.15
2022-12-14T06:32:06.032Z,1002.12
2022-12-14T06:33:06.017Z,1002.10
2022-12-14T06:34:06.034Z,1002.11
2022-12-14T06:35:05.988Z,1002.10
2022-12-14T06:36:05.973Z,1002.06
2022-12-14T06:37:05.974Z,1002.10
2022-12-14T06:38:05.956Z,1002.10
2022-12-14T06:39:05.942Z,1002.12
2022-12-14T06:40:05.931Z,1002.08
2022-12-14T06:41:05.905Z,1002.10
2022-12-14T06:42:05.897Z,1002.08
2022-12-14T06:43:05.889Z,1002.07
2022-12-14T06:44:05.880Z,1002.07
2022-12-14T06:45:05.861Z,1002.07
2022-12-14T06:46:09.953Z,1002.08
2022-12-14T06:47:05.830Z,1002.08
2022-12-14T06:48:05.827Z,1002.06
2022-12-14T06:49:05.834Z,1002.04
2022-12-14T06:50:05.788Z,1002.07
2022-12-14T06:51:05.786Z,1002.05
2022-12-14T06:52:05.765Z,1002.03
2022-12-14T06:53:05.738Z,1002.02
2022-12-14T06:54:05.738Z,1002.02
2022-12-14T06:55:05.757Z,1001.98
2022-12-14T06:56:05.738Z,1002.00
2022-12-14T06:57:05.729Z,1002.01
2022-12-14T06:58:05.702Z,1001.97
2022-12-14T06:59:05.710Z,1002.01
2022-12-14T07:00:05.743Z,1002.00
2022-12-14T07:01:05.756Z,1002.01
2022-12-14T07:02:05.732Z,1002.00
2022-12-14T07:03:05.791Z,1001.95
2022-12-14T07:04:05.611Z,1001.99
2022-12-14T07:05:05.619Z,1002.00
2022-12-14T07:06:05.575Z,1002.02
2022-12-14T07:07:05.554Z,1001.92
2022-12-14T07:08:05.550Z,1001.93
2022-12-14T07:09:05.552Z,1001.92
2022-12-14T07:10:05.531Z,1001.94
2022-12-14T07:11:05.501Z,1001.91
2022-12-14T07:12:05.499Z,1001.90
2022-12-14T07:13:05.484Z,1001.93
2022-12-14T07:14:05.467Z,1001.89
2022-12-14T07:15:05.455Z,1001.89
2022-12-14T07:16:05.521Z,1001.92
2022-12-14T07:17:05.433Z,1001.86
2022-12-14T07:18:05.428Z,1001.85
2022-12-14T07:19:05.408Z,1001.87
2022-12-14T07:20:05.444Z,1001.85
2022-12-14T07:21:05.397Z,1001.86
2022-12-14T07:22:05.392Z,1001.83
2022-12-14T07:23:05.341Z,1001.79
2022-12-14T07:24:05.346Z,1001.79
2022-12-14T07:25:05.368Z,1001.79
2022-12-14T07:26:05.345Z,1001.78
2022-12-14T07:27:05.290Z,1001.70
2022-12-14T07:28:05.290Z,1001.73
2022-12-14T07:29:05.269Z,1001.76
2022-12-14T07:30:05.273Z,1001.72
2022-12-14T07:31:05.269Z,1001.74
2022-12-14T07:32:05.230Z,1001.75
2022-12-14T07:33:05.218Z,1001.72
2022-12-14T07:34:05.196Z,1001.67
2022-12-14T07:35:05.186Z,1001.69
2022-12-14T07:36:05.187Z,1001.64
2022-12-14T07:37:05.160Z,1001.62
2022-12-14T07:38:05.144Z,1001.62
2022-12-14T07:39:05.139Z,1001.56
2022-12-14T07:40:05.128Z,1001.59
2022-12-14T07:41:05.145Z,1001.54
2022-12-14T07:42:05.095Z,1001.59
2022-12-14T07:43:05.091Z,1001.55
2022-12-14T07:44:05.112Z,1001.56
2022-12-14T07:45:05.050Z,1001.58
2022-12-14T07:46:05.117Z,1001.61
2022-12-14T07:47:05.019Z,1001.59
2022-12-14T07:48:05.050Z,1001.58
2022-12-14T07:49:05.027Z,1001.57
2022-12-14T07:50:05.015Z,1001.59
2022-12-14T07:51:04.977Z,1001.58
2022-12-14T07:52:04.980Z,1001.56
2022-12-14T07:53:04.955Z,1001.61
2022-12-14T07:54:05.008Z,1001.59
2022-12-14T07:55:04.923Z,1001.63
2022-12-14T07:56:04.919Z,1001.62
2022-12-14T07:57:04.931Z,1001.57
2022-12-14T07:58:04.892Z,1001.60
2022-12-14T07:59:04.876Z,1001.58
2022-12-14T08:00:04.878Z,1001.60
2022-12-14T08:01:04.863Z,1001.65
2022-12-14T08:02:05.143Z,1001.63
2022-12-14T08:03:04.819Z,1001.68
2022-12-14T08:04:04.940Z,1001.69
2022-12-14T08:05:10.599Z,1001.68
2022-12-14T08:06:04.785Z,1001.69
2022-12-14T08:07:04.762Z,1001.62
2022-12-14T08:08:04.755Z,1001.61
2022-12-14T08:09:04.856Z,1001.61
2022-12-14T08:10:04.736Z,1001.62
2022-12-14T08:11:04.741Z,1001.63
2022-12-14T08:12:04.700Z,1001.61
2022-12-14T08:13:04.679Z,1001.60
2022-12-14T08:14:04.680Z,1001.58
2022-12-14T08:15:04.662Z,1001.63
2022-12-14T08:16:04.767Z,1001.64
2022-12-14T08:17:04.670Z,1001.63
2022-12-14T08:18:04.614Z,1001.62
2022-12-14T08:19:04.601Z,1001.61
2022-12-14T08:20:04.621Z,1001.61
2022-12-14T08:21:04.578Z,1001.59
2022-12-14T08:22:04.567Z,1001.62
2022-12-14T08:23:04.552Z,1001.61
2022-12-14T08:24:04.560Z,1001.59
2022-12-14T08:25:04.522Z,1001.51
2022-12-14T08:26:04.513Z,1001.52
2022-12-14T08:27:04.535Z,1001.53
2022-12-14T08:28:04.573Z,1001.55
2022-12-14T08:29:04.508Z,1001.54
2022-12-14T08:30:05.457Z,1001.52
2022-12-14T08:31:04.527Z,1001.52
2022-12-14T08:32:04.466Z,1001.56
2022-12-14T08:33:04.477Z,1001.53
2022-12-14T08:34:04.428Z,1001.51
2022-12-14T08:35:04.397Z,1001.53
2022-12-14T08:36:04.407Z,1001.51
2022-12-14T08:37:04.372Z,1001.47
2022-12-14T08:38:04.369Z,1001.50
2022-12-14T08:39:04.354Z,1001.45
2022-12-14T08:40:04.353Z,1001.46
2022-12-14T08:41:04.308Z,1001.47
2022-12-14T08:42:04.313Z,1001.42
2022-12-14T08:43:04.281Z,1001.43
2022-12-14T08:44:04.288Z,1001.41
2022-12-14T08:45:04.260Z,1001.43
2022-12-14T08:46:04.256Z,1001.40
2022-12-14T08:47:04.309Z,1001.39
2022-12-14T08:48:04.242Z,1001.43
2022-12-14T08:49:04.226Z,1001.44
2022-12-14T08:50:04.205Z,1001.46
2022-12-14T08:51:04.220Z,1001.44
2022-12-14T08:52:04.187Z,1001.46
2022-12-14T08:53:04.173Z,1001.41
2022-12-14T08:54:04.156Z,1001.42
2022-12-14T08:55:04.236Z,1001.41
2022-12-14T08:56:04.145Z,1001.39
2022-12-14T08:57:04.108Z,1001.43
2022-12-14T08:58:04.104Z,1001.39
2022-12-14T08:59:04.083Z,1001.40
2022-12-14T09:00:04.111Z,1001.42
2022-12-14T09:01:04.169Z,1001.42
2022-12-14T09:02:04.221Z,1001.46
2022-12-14T09:03:04.168Z,1001.43
2022-12-14T09:04:04.034Z,1001.46
2022-12-14T09:05:04.028Z,1001.43
2022-12-14T09:06:04.041Z,1001.44
2022-12-14T09:07:04.000Z,1001.43
2022-12-14T09:08:04.002Z,1001.40
2022-12-14T09:09:03.992Z,1001.40
2022-12-14T09:10:04.045Z,1001.38
2022-12-14T09:11:03.996Z,1001.36
2022-12-14T09:12:03.965Z,1001.37
2022-12-14T09:13:03.945Z,1001.38
2022-12-14T09:14:03.964Z,1001.35
2022-12-14T09:15:03.946Z,1001.32
2022-12-14T09:16:03.983Z,1001.39
2022-12-14T09:17:03.914Z,1001.39
2022-12-14T09:18:03.976Z,1001.35
2022-12-14T09:19:03.917Z,1001.37
2022-12-14T09:20:03.954Z,1001.36
2022-12-14T09:21:03.895Z,1001.38
2022-12-14T09:22:03.996Z,1001.37
2022-12-14T09:23:03.908Z,1001.35
2022-12-14T09:24:03.852Z,1001.36
2022-12-14T09:25:03.875Z,1001.35
2022-12-14T09:26:03.829Z,1001.33
2022-12-14T09:27:03.831Z,1001.30
2022-12-14T09:28:03.824Z,1001.24
2022-12-14T09:29:03.842Z,1001.27
2022-12-14T09:30:03.784Z,1001.21
2022-12-14T09:31:03.807Z,1001.21
2022-12-14T09:32:03.841Z,1001.21
2022-12-14T09:33:03.779Z,1001.25
2022-12-14T09:34:03.760Z,1001.24
2022-12-14T09:35:03.736Z,1001.20
2022-12-14T09:36:03.820Z,1001.22
2022-12-14T09:37:03.743Z,1001.20
2022-12-14T09:38:03.732Z,1001.20
2022-12-14T09:39:03.702Z,1001.23
2022-12-14T09:40:03.712Z,1001.16
2022-12-14T09:41:07.039Z,1001.10
2022-12-14T09:42:03.678Z,1001.11
2022-12-14T09:43:03.663Z,1001.10
2022-12-14T09:44:03.670Z,1001.05
2022-12-14T09:45:03.632Z,1001.06
2022-12-14T09:46:03.680Z,1001.03
2022-12-14T09:47:03.617Z,1000.94
2022-12-14T09:48:03.616Z,1000.94
2022-12-14T09:49:03.596Z,1000.95
2022-12-14T09:50:03.601Z,1000.93
2022-12-14T09:51:03.629Z,1000.90
2022-12-14T09:52:03.571Z,1000.88
2022-12-14T09:53:03.565Z,1000.86
2022-12-14T09:54:03.567Z,1000.87
2022-12-14T09:55:03.537Z,1000.85
2022-12-14T09:56:03.524Z,1000.86
2022-12-14T09:57:03.532Z,1000.88
2022-12-14T09:58:03.525Z,1000.88
2022-12-14T09:59:03.545Z,1000.85
2022-12-14T10:00:03.487Z,1000.83
2022-12-14T10:01:03.542Z,1000.85
2022-12-14T10:03:06.836Z,1000.80
2022-12-14T10:04:03.628Z,1000.83
2022-12-14T10:05:03.436Z,1000.82
2022-12-14T10:06:03.431Z,1000.81
2022-12-14T10:07:03.408Z,1000.77
2022-12-14T10:08:03.427Z,1000.80
2022-12-14T10:09:03.417Z,1000.75
2022-12-14T10:10:03.382Z,1000.74
2022-12-14T10:11:03.415Z,1000.73
2022-12-14T10:12:03.381Z,1000.70
2022-12-14T10:13:03.346Z,1000.69
2022-12-14T10:14:03.358Z,1000.62
2022-12-14T10:15:03.331Z,1000.65
2022-12-14T10:16:03.332Z,1000.65
2022-12-14T10:17:03.359Z,1000.64
2022-12-14T10:18:03.310Z,1000.62
2022-12-14T10:19:03.795Z,1000.59
2022-12-14T10:20:03.281Z,1000.59
2022-12-14T10:21:03.279Z,1000.59
2022-12-14T10:22:03.279Z,1000.60
2022-12-14T10:23:03.241Z,1000.58
2022-12-14T10:24:03.253Z,1000.50
2022-12-14T10:25:03.243Z,1000.48
2022-12-14T10:26:03.207Z,1000.50
2022-12-14T10:27:03.198Z,1000.51
2022-12-14T10:28:11.843Z,1000.52
2022-12-14T10:29:03.171Z,1000.51
2022-12-14T10:30:03.180Z,1000.51
2022-12-14T10:31:03.151Z,1000.48
2022-12-14T10:32:03.302Z,1000.48
2022-12-14T10:33:03.122Z,1000.48
2022-12-14T10:34:05.408Z,1000.44
2022-12-14T10:35:03.115Z,1000.44
2022-12-14T10:36:03.127Z,1000.38
2022-12-14T10:37:03.105Z,1000.37
2022-12-14T10:38:03.158Z,1000.33
2022-12-14T10:39:03.078Z,1000.32
2022-12-14T10:40:07.630Z,1000.39
2022-12-14T10:41:03.055Z,1000.33
2022-12-14T10:42:03.030Z,1000.26
2022-12-14T10:43:03.054Z,1000.25
2022-12-14T10:44:03.007Z,1000.27
2022-12-14T10:45:39.132Z,1000.23
2022-12-14T10:46:05.198Z,1000.25
2022-12-14T10:47:03.022Z,1000.29
2022-12-14T10:48:02.957Z,1000.23
2022-12-14T10:49:02.942Z,1000.22
2022-12-14T10:50:02.921Z,1000.23
2022-12-14T10:51:02.914Z,1000.21
2022-12-14T10:52:02.918Z,1000.24
2022-12-14T10:53:02.911Z,1000.18
2022-12-14T10:54:02.986Z,1000.19
2022-12-14T10:55:02.887Z,1000.18
2022-12-14T10:56:02.900Z,1000.21
2022-12-14T10:57:02.934Z,1000.19
2022-12-14T10:58:02.859Z,1000.27
2022-12-14T10:59:02.821Z,1000.20
2022-12-14T11:00:09.180Z,1000.17
2022-12-14T11:01:02.852Z,1000.24
2022-12-14T11:02:03.045Z,1000.17
2022-12-14T11:03:02.893Z,1000.15
2022-12-14T11:04:02.764Z,1000.11
2022-12-14T11:05:02.783Z,1000.11
2022-12-14T11:06:02.736Z,1000.05
2022-12-14T11:07:02.741Z,1000.03
2022-12-14T11:08:02.710Z,999.98
2022-12-14T11:09:02.726Z,999.95
2022-12-14T11:10:02.730Z,999.93
2022-12-14T11:11:02.715Z,999.93
2022-12-14T11:12:02.798Z,999.90
2022-12-14T11:13:02.656Z,999.87
2022-12-14T11:14:02.715Z,999.83
2022-12-14T11:15:02.679Z,999.87
2022-12-14T11:16:02.626Z,999.85
2022-12-14T11:17:02.739Z,999.82
2022-12-14T11:18:02.782Z,999.78
2022-12-14T11:19:02.597Z,999.80
2022-12-14T11:20:02.583Z,999.82
2022-12-14T11:21:02.593Z,999.78
2022-12-14T11:22:02.589Z,999.79
2022-12-14T11:23:02.552Z,999.79
2022-12-14T11:24:02.549Z,999.83
2022-12-14T11:25:02.534Z,999.85
2022-12-14T11:26:02.538Z,999.79
2022-12-14T11:27:02.494Z,999.80
2022-12-14T11:28:02.479Z,999.76
2022-12-14T11:29:02.473Z,999.78
2022-12-14T11:30:02.470Z,999.76
2022-12-14T11:31:02.556Z,999.71
2022-12-14T11:32:02.462Z,999.76
2022-12-14T11:33:02.495Z,999.79
2022-12-14T11:34:02.419Z,999.76
2022-12-14T11:35:02.410Z,999.79
2022-12-14T11:36:02.396Z,999.82
2022-12-14T11:37:02.394Z,999.79
2022-12-14T11:38:02.364Z,999.73
2022-12-14T11:39:02.359Z,999.80
2022-12-14T11:40:02.360Z,999.78
2022-12-14T11:41:07.250Z,999.75
2022-12-14T11:42:02.327Z,999.76
2022-12-14T11:43:02.312Z,999.80
2022-12-14T11:44:02.342Z,999.76
2022-12-14T11:45:02.294Z,999.76
2022-12-14T11:46:02.378Z,999.76
2022-12-14T11:47:02.257Z,999.83
2022-12-14T11:48:02.273Z,999.78
2022-12-14T11:49:02.282Z,999.77
2022-12-14T11:50:02.227Z,999.76
2022-12-14T11:51:02.209Z,999.73
2022-12-14T11:52:02.221Z,999.76
2022-12-14T11:53:06.339Z,999.76
2022-12-14T11:54:02.186Z,999.79
2022-12-14T11:55:02.174Z,999.73
2022-12-14T11:56:02.147Z,999.75
2022-12-14T11:57:02.148Z,999.76
2022-12-14T11:58:02.143Z,999.77
2022-12-14T11:59:02.156Z,999.77
2022-12-14T12:00:02.132Z,999.77
2022-12-14T12:01:02.109Z,999.72
2022-12-14T12:02:02.366Z,999.70
2022-12-14T12:03:02.250Z,999.71
2022-12-14T12:04:02.155Z,999.68
2022-12-14T12:05:02.047Z,999.71
2022-12-14T12:06:02.191Z,999.65
2022-12-14T12:07:04.600Z,999.67
2022-12-14T12:08:02.074Z,999.67